sensor_id;sensor_type;location;lat;lon;timestamp;temperature;humidity
24232;DHT22;12364;47.810;8.810;2022-10-30T05:31:25;14.30;99.90
24232;DHT22;12364;47.810;8.810;2022-10-30T05:33:52;14.30;99.90
24232;DHT22;12364;47.810;8.810;2022-10-30T05:36:19;14.30;99.90
24232;DHT22;12364;47.810;8.810;2022-10-30T05:38:46;14.30;99.90
24232;DHT22;12364;47.810;8.810;2022-10-30T05:41:13;14.30;99.90
24232;DHT22;12364;47.810;8.810;2022-10-30T05:43:40;14.30;99.90
24232;DHT22;12364;47.810;8.810;2022-10-30T05:46:07;14.30;99.90
24232;DHT22;12364;47.810;8.810;2022-10-30T05:48:34;14.30;99.90
24232;DHT22;12364;47.810;8.810;2022-10-30T05:51:01;14.30;99.90
24232;DHT22;12364;47.810;8.810;2022-10-30T05:53:30;14.30;99.90
24232;DHT22;12364;47.810;8.810;2022-10-30T05:55:57;14.30;99.90
24232;DHT22;12364;47.810;8.810;2022-10-30T05:58:24;14.30;99.90
24232;DHT22;12364;47.810;8.810;2022-10-30T06:00:51;14.30;99.90
24232;DHT22;12364;47.810;8.810;2022-10-30T06:03:18;14.20;99.90
24232;DHT22;12364;47.810;8.810;2022-10-30T06:05:45;14.10;99.90
24232;DHT22;12364;47.810;8.810;2022-10-30T06:08:12;14.10;99.90
24232;DHT22;12364;47.810;8.810;2022-10-30T06:10:42;14.10;99.90
24232;DHT22;12364;47.810;8.810;2022-10-30T06:13:09;14.10;99.90
24232;DHT22;12364;47.810;8.810;2022-10-30T06:15:36;14.10;99.90
24232;DHT22;12364;47.810;8.810;2022-10-30T06:18:03;14.20;99.90
24232;DHT22;12364;47.810;8.810;2022-10-30T06:20:30;14.20;99.90
24232;DHT22;12364;47.810;8.810;2022-10-30T06:22:58;14.10;99.90
24232;DHT22;12364;47.810;8.810;2022-10-30T06:25:26;14.10;99.90
24232;DHT22;12364;47.810;8.810;2022-10-30T06:27:53;14.10;99.90
24232;DHT22;12364;47.810;8.810;2022-10-30T06:30:20;14.10;99.90
24232;DHT22;12364;47.810;8.810;2022-10-30T06:32:48;14.00;99.90
24232;DHT22;12364;47.810;8.810;2022-10-30T06:35:15;14.00;99.90
24232;DHT22;12364;47.810;8.810;2022-10-30T06:37:48;14.00;99.90
24232;DHT22;12364;47.810;8.810;2022-10-30T06:40:15;14.00;99.90
24232;DHT22;12364;47.810;8.810;2022-10-30T06:42:46;14.00;99.90
24232;DHT22;12364;47.810;8.810;2022-10-30T06:45:13;14.00;99.90
24232;DHT22;12364;47.810;8.810;2022-10-30T06:47:41;14.00;99.90
24232;DHT22;12364;47.810;8.810;2022-10-30T06:50:09;14.00;99.90
24232;DHT22;12364;47.810;8.810;2022-10-30T06:52:37;14.00;99.90
24232;DHT22;12364;47.810;8.810;2022-10-30T06:55:04;14.00;99.90
24232;DHT22;12364;47.810;8.810;2022-10-30T06:57:31;14.00;99.90
24232;DHT22;12364;47.810;8.810;2022-10-30T06:59:58;14.00;99.90
24232;DHT22;12364;47.810;8.810;2022-10-30T07:02:25;14.00;99.90
24232;DHT22;12364;47.810;8.810;2022-10-30T07:04:52;14.00;99.90
24232;DHT22;12364;47.810;8.810;2022-10-30T07:07:19;14.00;99.90
24232;DHT22;12364;47.810;8.810;2022-10-30T07:09:46;14.00;99.90
24232;DHT22;12364;47.810;8.810;2022-10-30T07:12:13;14.00;99.90
24232;DHT22;12364;47.810;8.810;2022-10-30T07:14:40;14.00;99.90
24232;DHT22;12364;47.810;8.810;2022-10-30T07:17:07;14.00;99.90
24232;DHT22;12364;47.810;8.810;2022-10-30T07:19:35;14.00;99.90
24232;DHT22;12364;47.810;8.810;2022-10-30T07:22:02;14.00;99.90
24232;DHT22;12364;47.810;8.810;2022-10-30T07:24:29;14.00;99.90
24232;DHT22;12364;47.810;8.810;2022-10-30T07:26:56;14.10;99.90
24232;DHT22;12364;47.810;8.810;2022-10-30T07:29:23;14.10;99.90
24232;DHT22;12364;47.810;8.810;2022-10-30T07:31:50;14.20;99.90
24232;DHT22;12364;47.810;8.810;2022-10-30T07:34:29;14.30;99.90
24232;DHT22;12364;47.810;8.810;2022-10-30T07:36:56;14.40;99.90
24232;DHT22;12364;47.810;8.810;2022-10-30T07:39:23;14.40;99.90
24232;DHT22;12364;47.810;8.810;2022-10-30T07:41:50;14.50;99.90
24232;DHT22;12364;47.810;8.810;2022-10-30T07:44:17;14.50;99.90
24232;DHT22;12364;47.810;8.810;2022-10-30T07:46:44;14.60;99.90
24232;DHT22;12364;47.810;8.810;2022-10-30T07:49:11;14.60;99.90
24232;DHT22;12364;47.810;8.810;2022-10-30T07:51:38;14.60;99.90
24232;DHT22;12364;47.810;8.810;2022-10-30T07:54:05;14.70;99.90
24232;DHT22;12364;47.810;8.810;2022-10-30T07:56:32;14.70;99.90
24232;DHT22;12364;47.810;8.810;2022-10-30T07:58:59;14.70;99.90
24232;DHT22;12364;47.810;8.810;2022-10-30T08:01:26;14.70;99.90
24232;DHT22;12364;47.810;8.810;2022-10-30T08:03:53;14.70;99.90
24232;DHT22;12364;47.810;8.810;2022-10-30T08:06:20;14.70;99.90
24232;DHT22;12364;47.810;8.810;2022-10-30T08:08:52;14.80;99.90
24232;DHT22;12364;47.810;8.810;2022-10-30T08:11:19;14.80;99.90
24232;DHT22;12364;47.810;8.810;2022-10-30T08:13:46;14.90;99.90
24232;DHT22;12364;47.810;8.810;2022-10-30T08:16:13;15.00;99.90
24232;DHT22;12364;47.810;8.810;2022-10-30T08:18:40;15.00;99.90
24232;DHT22;12364;47.810;8.810;2022-10-30T08:21:08;15.10;99.90
24232;DHT22;12364;47.810;8.810;2022-10-30T08:23:35;15.10;99.90
24232;DHT22;12364;47.810;8.810;2022-10-30T08:26:03;15.10;99.90
24232;DHT22;12364;47.810;8.810;2022-10-30T08:28:31;15.10;99.90
24232;DHT22;12364;47.810;8.810;2022-10-30T08:30:59;15.10;99.90
24232;DHT22;12364;47.810;8.810;2022-10-30T08:33:26;15.20;99.90
24232;DHT22;12364;47.810;8.810;2022-10-30T08:35:54;15.30;99.90
24232;DHT22;12364;47.810;8.810;2022-10-30T08:38:25;15.40;99.90
24232;DHT22;12364;47.810;8.810;2022-10-30T08:40:53;15.40;99.90
24232;DHT22;12364;47.810;8.810;2022-10-30T08:43:20;15.50;99.90
24232;DHT22;12364;47.810;8.810;2022-10-30T08:45:47;15.60;99.90
24232;DHT22;12364;47.810;8.810;2022-10-30T08:48:14;15.60;99.90
24232;DHT22;12364;47.810;8.810;2022-10-30T08:50:42;15.70;99.90
24232;DHT22;12364;47.810;8.810;2022-10-30T08:53:10;15.70;99.90
24232;DHT22;12364;47.810;8.810;2022-10-30T08:55:37;15.70;99.90
24232;DHT22;12364;47.810;8.810;2022-10-30T08:58:04;15.70;99.90
24232;DHT22;12364;47.810;8.810;2022-10-30T09:00:31;15.80;99.90
24232;DHT22;12364;47.810;8.810;2022-10-30T09:02:58;15.80;99.90
24232;DHT22;12364;47.810;8.810;2022-10-30T09:05:25;15.80;99.90
24232;DHT22;12364;47.810;8.810;2022-10-30T09:07:56;15.80;99.90
24232;DHT22;12364;47.810;8.810;2022-10-30T09:10:24;15.90;99.90
24232;DHT22;12364;47.810;8.810;2022-10-30T09:12:54;16.00;99.90
24232;DHT22;12364;47.810;8.810;2022-10-30T09:15:22;16.00;99.90
24232;DHT22;12364;47.810;8.810;2022-10-30T09:17:59;16.00;99.90
24232;DHT22;12364;47.810;8.810;2022-10-30T09:20:27;16.10;99.90
24232;DHT22;12364;47.810;8.810;2022-10-30T09:22:54;16.10;99.90
24232;DHT22;12364;47.810;8.810;2022-10-30T09:25:22;16.10;99.90
24232;DHT22;12364;47.810;8.810;2022-10-30T09:27:49;16.20;99.90
24232;DHT22;12364;47.810;8.810;2022-10-30T09:30:16;16.30;99.90
24232;DHT22;12364;47.810;8.810;2022-10-30T09:32:43;16.30;99.90
24232;DHT22;12364;47.810;8.810;2022-10-30T09:35:10;16.30;99.90
24232;DHT22;12364;47.810;8.810;2022-10-30T09:37:38;16.40;99.90
24232;DHT22;12364;47.810;8.810;2022-10-30T09:40:05;16.40;99.90
24232;DHT22;12364;47.810;8.810;2022-10-30T09:42:48;16.40;99.90
24232;DHT22;12364;47.810;8.810;2022-10-30T09:50:28;16.50;99.90
24232;DHT22;12364;47.810;8.810;2022-10-30T10:01:21;16.70;99.90
24232;DHT22;12364;47.810;8.810;2022-10-30T10:03:54;16.80;99.90
24232;DHT22;12364;47.810;8.810;2022-10-30T10:06:24;16.80;99.90
24232;DHT22;12364;47.810;8.810;2022-10-30T10:09:11;16.90;99.90
24232;DHT22;12364;47.810;8.810;2022-10-30T10:11:39;17.00;99.90
24232;DHT22;12364;47.810;8.810;2022-10-30T10:14:15;17.00;99.90
24232;DHT22;12364;47.810;8.810;2022-10-30T10:16:44;17.00;99.90
24232;DHT22;12364;47.810;8.810;2022-10-30T10:19:17;17.10;99.90
24232;DHT22;12364;47.810;8.810;2022-10-30T10:22:32;17.20;99.90
24232;DHT22;12364;47.810;8.810;2022-10-30T10:24:33;17.20;99.90
24232;DHT22;12364;47.810;8.810;2022-10-30T10:37:37;17.50;99.90
24232;DHT22;12364;47.810;8.810;2022-10-30T10:50:51;17.90;99.90
24232;DHT22;12364;47.810;8.810;2022-10-30T10:55:52;18.00;99.90
24232;DHT22;12364;47.810;8.810;2022-10-30T11:00:47;18.20;99.90
24232;DHT22;12364;47.810;8.810;2022-10-30T11:03:14;18.20;99.90
24232;DHT22;12364;47.810;8.810;2022-10-30T11:05:53;18.20;99.90
24232;DHT22;12364;47.810;8.810;2022-10-30T11:08:29;18.30;99.90
24232;DHT22;12364;47.810;8.810;2022-10-30T11:11:03;18.30;99.90
24232;DHT22;12364;47.810;8.810;2022-10-30T11:13:34;18.40;99.90
24232;DHT22;12364;47.810;8.810;2022-10-30T11:18:49;18.50;99.90
24232;DHT22;12364;47.810;8.810;2022-10-30T11:21:18;18.50;99.90
24232;DHT22;12364;47.810;8.810;2022-10-30T11:23:47;18.50;99.90
24232;DHT22;12364;47.810;8.810;2022-10-30T11:28:55;18.60;99.90
24232;DHT22;12364;47.810;8.810;2022-10-30T11:31:26;18.70;99.90
24232;DHT22;12364;47.810;8.810;2022-10-30T11:33:54;18.70;99.90
24232;DHT22;12364;47.810;8.810;2022-10-30T11:36:22;18.80;99.90
24232;DHT22;12364;47.810;8.810;2022-10-30T11:38:49;18.80;99.90
24232;DHT22;12364;47.810;8.810;2022-10-30T11:41:16;18.80;99.90
24232;DHT22;12364;47.810;8.810;2022-10-30T11:43:44;18.90;99.90
24232;DHT22;12364;47.810;8.810;2022-10-30T11:46:14;19.00;99.90
24232;DHT22;12364;47.810;8.810;2022-10-30T11:48:44;19.00;99.90
24232;DHT22;12364;47.810;8.810;2022-10-30T11:51:11;19.10;99.90
24232;DHT22;12364;47.810;8.810;2022-10-30T11:53:40;19.10;99.90
24232;DHT22;12364;47.810;8.810;2022-10-30T11:56:14;19.20;99.90
24232;DHT22;12364;47.810;8.810;2022-10-30T11:58:45;19.00;99.90
24232;DHT22;12364;47.810;8.810;2022-10-30T12:01:21;19.30;99.90
24232;DHT22;12364;47.810;8.810;2022-10-30T12:03:49;19.40;99.90
24232;DHT22;12364;47.810;8.810;2022-10-30T12:06:18;19.40;99.90
24232;DHT22;12364;47.810;8.810;2022-10-30T12:09:31;19.40;99.90
24232;DHT22;12364;47.810;8.810;2022-10-30T12:11:32;19.50;99.90
24232;DHT22;12364;47.810;8.810;2022-10-30T12:14:00;19.50;99.90
24232;DHT22;12364;47.810;8.810;2022-10-30T12:16:28;19.60;99.90
24232;DHT22;12364;47.810;8.810;2022-10-30T12:18:57;19.60;99.90
24232;DHT22;12364;47.810;8.810;2022-10-30T12:21:25;19.60;99.90
24232;DHT22;12364;47.810;8.810;2022-10-30T12:23:54;19.70;99.90
24232;DHT22;12364;47.810;8.810;2022-10-30T12:26:21;19.70;99.90
24232;DHT22;12364;47.810;8.810;2022-10-30T12:28:51;19.80;99.90
24232;DHT22;12364;47.810;8.810;2022-10-30T12:31:24;19.80;99.90
24232;DHT22;12364;47.810;8.810;2022-10-30T12:34:03;19.80;99.90
24232;DHT22;12364;47.810;8.810;2022-10-30T12:36:33;19.90;99.90
24232;DHT22;12364;47.810;8.810;2022-10-30T12:39:03;19.90;99.90
24232;DHT22;12364;47.810;8.810;2022-10-30T12:41:49;19.90;99.90
24232;DHT22;12364;47.810;8.810;2022-10-30T12:44:18;19.90;99.90
24232;DHT22;12364;47.810;8.810;2022-10-30T12:49:25;20.00;99.90
24232;DHT22;12364;47.810;8.810;2022-10-30T12:56:55;20.00;99.90
24232;DHT22;12364;47.810;8.810;2022-10-30T12:59:26;20.00;99.90
24232;DHT22;12364;47.810;8.810;2022-10-30T13:01:58;20.10;99.90
24232;DHT22;12364;47.810;8.810;2022-10-30T13:04:34;20.10;99.90
24232;DHT22;12364;47.810;8.810;2022-10-30T13:12:35;20.10;99.90
24232;DHT22;12364;47.810;8.810;2022-10-30T13:17:36;20.10;99.90
24232;DHT22;12364;47.810;8.810;2022-10-30T13:20:10;20.10;99.90
24232;DHT22;12364;47.810;8.810;2022-10-30T13:22:48;20.10;99.90
24232;DHT22;12364;47.810;8.810;2022-10-30T13:30:29;20.20;99.90
24232;DHT22;12364;47.810;8.810;2022-10-30T13:33:11;20.20;99.90
24232;DHT22;12364;47.810;8.810;2022-10-30T13:51:34;20.30;99.90
24232;DHT22;12364;47.810;8.810;2022-10-30T13:56:29;20.30;99.90
24232;DHT22;12364;47.810;8.810;2022-10-30T13:59:02;20.40;99.90
24232;DHT22;12364;47.810;8.810;2022-10-30T14:01:32;20.40;99.90
24232;DHT22;12364;47.810;8.810;2022-10-30T14:04:04;20.40;99.90
24232;DHT22;12364;47.810;8.810;2022-10-30T14:06:41;20.40;99.90
24232;DHT22;12364;47.810;8.810;2022-10-30T14:11:41;20.50;99.90
24232;DHT22;12364;47.810;8.810;2022-10-30T14:14:30;20.50;99.90
24232;DHT22;12364;47.810;8.810;2022-10-30T14:17:08;20.50;99.90
24232;DHT22;12364;47.810;8.810;2022-10-30T14:22:34;20.50;99.90
24232;DHT22;12364;47.810;8.810;2022-10-30T14:25:03;20.50;99.90
24232;DHT22;12364;47.810;8.810;2022-10-30T14:27:37;20.50;99.90
24232;DHT22;12364;47.810;8.810;2022-10-30T14:30:12;20.50;99.90
24232;DHT22;12364;47.810;8.810;2022-10-30T14:32:46;20.50;99.90
24232;DHT22;12364;47.810;8.810;2022-10-30T14:35:26;20.50;99.90
24232;DHT22;12364;47.810;8.810;2022-10-30T14:37:54;20.50;99.90
24232;DHT22;12364;47.810;8.810;2022-10-30T14:43:08;20.50;99.90
24232;DHT22;12364;47.810;8.810;2022-10-30T14:45:54;20.50;99.90
24232;DHT22;12364;47.810;8.810;2022-10-30T14:48:27;20.50;99.90
24232;DHT22;12364;47.810;8.810;2022-10-30T14:55:56;20.50;99.90
24232;DHT22;12364;47.810;8.810;2022-10-30T14:58:26;20.40;99.90
24232;DHT22;12364;47.810;8.810;2022-10-30T15:09:47;20.40;99.90
24232;DHT22;12364;47.810;8.810;2022-10-30T15:20:06;20.30;99.90
24232;DHT22;12364;47.810;8.810;2022-10-30T15:22:34;20.30;99.90
24232;DHT22;12364;47.810;8.810;2022-10-30T15:25:01;20.30;99.90
24232;DHT22;12364;47.810;8.810;2022-10-30T15:27:28;20.30;99.90
24232;DHT22;12364;47.810;8.810;2022-10-30T15:29:59;20.30;99.90
24232;DHT22;12364;47.810;8.810;2022-10-30T15:32:26;20.30;99.90
24232;DHT22;12364;47.810;8.810;2022-10-30T15:34:55;20.20;99.90
24232;DHT22;12364;47.810;8.810;2022-10-30T15:37:22;20.20;99.90
24232;DHT22;12364;47.810;8.810;2022-10-30T15:39:49;20.20;99.90
24232;DHT22;12364;47.810;8.810;2022-10-30T15:42:34;20.10;99.90
24232;DHT22;12364;47.810;8.810;2022-10-30T15:45:01;20.10;99.90
24232;DHT22;12364;47.810;8.810;2022-10-30T15:47:29;20.10;99.90
24232;DHT22;12364;47.810;8.810;2022-10-30T15:49:56;20.10;99.90
24232;DHT22;12364;47.810;8.810;2022-10-30T15:52:28;20.10;99.90
24232;DHT22;12364;47.810;8.810;2022-10-30T15:54:56;20.00;99.90
24232;DHT22;12364;47.810;8.810;2022-10-30T15:57:46;20.00;99.90
24232;DHT22;12364;47.810;8.810;2022-10-30T16:00:34;19.90;99.90
24232;DHT22;12364;47.810;8.810;2022-10-30T16:03:06;19.90;99.90
24232;DHT22;12364;47.810;8.810;2022-10-30T16:05:33;19.90;99.90
24232;DHT22;12364;47.810;8.810;2022-10-30T16:08:01;19.80;99.90
24232;DHT22;12364;47.810;8.810;2022-10-30T16:10:34;19.80;99.90
24232;DHT22;12364;47.810;8.810;2022-10-30T16:13:02;19.80;99.90
24232;DHT22;12364;47.810;8.810;2022-10-30T16:15:30;19.80;99.90
24232;DHT22;12364;47.810;8.810;2022-10-30T16:18:03;19.70;99.90
24232;DHT22;12364;47.810;8.810;2022-10-30T16:20:32;19.70;99.90
24232;DHT22;12364;47.810;8.810;2022-10-30T16:23:00;19.70;99.90
24232;DHT22;12364;47.810;8.810;2022-10-30T16:25:27;19.60;99.90
24232;DHT22;12364;47.810;8.810;2022-10-30T16:27:54;19.60;99.90
24232;DHT22;12364;47.810;8.810;2022-10-30T16:30:21;19.50;99.90
24232;DHT22;12364;47.810;8.810;2022-10-30T16:32:50;19.50;99.90
24232;DHT22;12364;47.810;8.810;2022-10-30T16:35:18;19.50;99.90
24232;DHT22;12364;47.810;8.810;2022-10-30T16:37:46;19.40;99.90
24232;DHT22;12364;47.810;8.810;2022-10-30T16:40:15;19.40;99.90
24232;DHT22;12364;47.810;8.810;2022-10-30T16:42:50;19.30;99.90
24232;DHT22;12364;47.810;8.810;2022-10-30T16:45:43;19.20;99.90
24232;DHT22;12364;47.810;8.810;2022-10-30T16:48:06;19.20;99.90
24232;DHT22;12364;47.810;8.810;2022-10-30T16:50:35;19.10;99.90
24232;DHT22;12364;47.810;8.810;2022-10-30T16:53:06;19.10;99.90
24232;DHT22;12364;47.810;8.810;2022-10-30T16:55:34;19.00;99.90
24232;DHT22;12364;47.810;8.810;2022-10-30T16:58:03;19.00;99.90
24232;DHT22;12364;47.810;8.810;2022-10-30T17:00:30;18.90;99.90
24232;DHT22;12364;47.810;8.810;2022-10-30T17:03:09;18.90;99.90
24232;DHT22;12364;47.810;8.810;2022-10-30T17:05:40;18.90;99.90
24232;DHT22;12364;47.810;8.810;2022-10-30T17:10:58;18.80;99.90
24232;DHT22;12364;47.810;8.810;2022-10-30T17:13:29;18.70;99.90
24232;DHT22;12364;47.810;8.810;2022-10-30T17:15:58;18.70;99.90
24232;DHT22;12364;47.810;8.810;2022-10-30T17:18:28;18.70;99.90
24232;DHT22;12364;47.810;8.810;2022-10-30T17:21:09;18.60;99.90
24232;DHT22;12364;47.810;8.810;2022-10-30T17:23:49;18.60;99.90
24232;DHT22;12364;47.810;8.810;2022-10-30T17:26:17;18.60;99.90
24232;DHT22;12364;47.810;8.810;2022-10-30T17:28:44;18.50;99.90
24232;DHT22;12364;47.810;8.810;2022-10-30T17:34:03;18.40;99.90
24232;DHT22;12364;47.810;8.810;2022-10-30T17:36:30;18.30;99.90
24232;DHT22;12364;47.810;8.810;2022-10-30T17:38:57;18.30;99.90
24232;DHT22;12364;47.810;8.810;2022-10-30T17:41:24;18.30;99.90
24232;DHT22;12364;47.810;8.810;2022-10-30T17:43:51;18.20;99.90
24232;DHT22;12364;47.810;8.810;2022-10-30T17:46:20;18.30;99.90
24232;DHT22;12364;47.810;8.810;2022-10-30T17:48:47;18.30;99.90
24232;DHT22;12364;47.810;8.810;2022-10-30T17:51:15;18.30;99.90
24232;DHT22;12364;47.810;8.810;2022-10-30T17:53:43;18.30;99.90
24232;DHT22;12364;47.810;8.810;2022-10-30T17:56:12;18.10;99.90
24232;DHT22;12364;47.810;8.810;2022-10-30T17:58:39;18.10;99.90
24232;DHT22;12364;47.810;8.810;2022-10-30T18:01:06;18.00;99.90
24232;DHT22;12364;47.810;8.810;2022-10-30T18:03:34;18.00;99.90
24232;DHT22;12364;47.810;8.810;2022-10-30T18:06:01;17.90;99.90
24232;DHT22;12364;47.810;8.810;2022-10-30T18:08:30;17.90;99.90
24232;DHT22;12364;47.810;8.810;2022-10-30T18:10:57;17.80;99.90
24232;DHT22;12364;47.810;8.810;2022-10-30T18:13:24;17.80;99.90
24232;DHT22;12364;47.810;8.810;2022-10-30T18:15:52;17.80;99.90
24232;DHT22;12364;47.810;8.810;2022-10-30T18:18:20;17.70;99.90
24232;DHT22;12364;47.810;8.810;2022-10-30T18:20:46;17.70;99.90
24232;DHT22;12364;47.810;8.810;2022-10-30T18:23:16;17.60;99.90
24232;DHT22;12364;47.810;8.810;2022-10-30T18:26:04;17.60;99.90
24232;DHT22;12364;47.810;8.810;2022-10-30T18:28:31;17.60;99.90
24232;DHT22;12364;47.810;8.810;2022-10-30T18:30:58;17.60;99.90
24232;DHT22;12364;47.810;8.810;2022-10-30T18:33:26;17.60;99.90
24232;DHT22;12364;47.810;8.810;2022-10-30T18:35:53;17.70;99.90
24232;DHT22;12364;47.810;8.810;2022-10-30T18:38:23;17.70;99.90
24232;DHT22;12364;47.810;8.810;2022-10-30T18:40:50;17.70;99.90
24232;DHT22;12364;47.810;8.810;2022-10-30T18:43:17;17.70;99.90
24232;DHT22;12364;47.810;8.810;2022-10-30T18:45:44;17.70;99.90
24232;DHT22;12364;47.810;8.810;2022-10-30T18:48:11;17.70;99.90
24232;DHT22;12364;47.810;8.810;2022-10-30T18:50:38;17.70;99.90
24232;DHT22;12364;47.810;8.810;2022-10-30T18:53:09;17.60;99.90
24232;DHT22;12364;47.810;8.810;2022-10-30T18:55:38;17.60;99.90
24232;DHT22;12364;47.810;8.810;2022-10-30T18:58:05;17.50;99.90
24232;DHT22;12364;47.810;8.810;2022-10-30T19:00:33;17.50;99.90
24232;DHT22;12364;47.810;8.810;2022-10-30T19:03:11;17.30;99.90
24232;DHT22;12364;47.810;8.810;2022-10-30T19:05:45;17.30;99.90
24232;DHT22;12364;47.810;8.810;2022-10-30T19:08:12;17.20;99.90
24232;DHT22;12364;47.810;8.810;2022-10-30T19:10:40;17.20;99.90
24232;DHT22;12364;47.810;8.810;2022-10-30T19:13:14;17.10;99.90
24232;DHT22;12364;47.810;8.810;2022-10-30T19:15:43;17.00;99.90
24232;DHT22;12364;47.810;8.810;2022-10-30T19:18:10;17.00;99.90
24232;DHT22;12364;47.810;8.810;2022-10-30T19:20:38;17.10;99.90
24232;DHT22;12364;47.810;8.810;2022-10-30T19:23:26;17.10;99.90
24232;DHT22;12364;47.810;8.810;2022-10-30T19:25:53;17.00;99.90
24232;DHT22;12364;47.810;8.810;2022-10-30T19:28:20;17.00;99.90
24232;DHT22;12364;47.810;8.810;2022-10-30T19:30:47;17.00;99.90
24232;DHT22;12364;47.810;8.810;2022-10-30T19:33:19;16.90;99.90
24232;DHT22;12364;47.810;8.810;2022-10-30T19:35:53;16.90;99.90
24232;DHT22;12364;47.810;8.810;2022-10-30T19:38:20;16.80;99.90
24232;DHT22;12364;47.810;8.810;2022-10-30T19:40:47;16.70;99.90
24232;DHT22;12364;47.810;8.810;2022-10-30T19:43:14;16.60;99.90
24232;DHT22;12364;47.810;8.810;2022-10-30T19:45:41;16.60;99.90
24232;DHT22;12364;47.810;8.810;2022-10-30T19:48:10;16.60;99.90
24232;DHT22;12364;47.810;8.810;2022-10-30T19:50:39;16.50;99.90
24232;DHT22;12364;47.810;8.810;2022-10-30T19:53:06;16.50;99.90
24232;DHT22;12364;47.810;8.810;2022-10-30T19:55:35;16.50;99.90
24232;DHT22;12364;47.810;8.810;2022-10-30T19:58:03;16.50;99.90
24232;DHT22;12364;47.810;8.810;2022-10-30T20:00:31;16.50;99.90
24232;DHT22;12364;47.810;8.810;2022-10-30T20:02:59;16.50;99.90
24232;DHT22;12364;47.810;8.810;2022-10-30T20:05:27;16.50;99.90
24232;DHT22;12364;47.810;8.810;2022-10-30T20:07:59;16.50;99.90
24232;DHT22;12364;47.810;8.810;2022-10-30T20:10:27;16.50;99.90
24232;DHT22;12364;47.810;8.810;2022-10-30T20:12:55;16.40;99.90
24232;DHT22;12364;47.810;8.810;2022-10-30T20:15:24;16.40;99.90
24232;DHT22;12364;47.810;8.810;2022-10-30T20:17:51;16.40;99.90
24232;DHT22;12364;47.810;8.810;2022-10-30T20:20:20;16.40;99.90
24232;DHT22;12364;47.810;8.810;2022-10-30T20:22:48;16.50;99.90
24232;DHT22;12364;47.810;8.810;2022-10-30T20:25:15;16.50;99.90
24232;DHT22;12364;47.810;8.810;2022-10-30T20:27:43;16.50;99.90
24232;DHT22;12364;47.810;8.810;2022-10-30T20:30:13;16.40;99.90
24232;DHT22;12364;47.810;8.810;2022-10-30T20:32:40;16.50;99.90
24232;DHT22;12364;47.810;8.810;2022-10-30T20:35:07;16.50;99.90
24232;DHT22;12364;47.810;8.810;2022-10-30T20:37:37;16.50;99.90
24232;DHT22;12364;47.810;8.810;2022-10-30T20:40:04;16.40;99.90
24232;DHT22;12364;47.810;8.810;2022-10-30T20:42:36;16.40;99.90
24232;DHT22;12364;47.810;8.810;2022-10-30T20:45:03;16.30;99.90
24232;DHT22;12364;47.810;8.810;2022-10-30T20:47:30;16.30;99.90
24232;DHT22;12364;47.810;8.810;2022-10-30T20:49:57;16.30;99.90
24232;DHT22;12364;47.810;8.810;2022-10-30T20:52:24;16.30;99.90
24232;DHT22;12364;47.810;8.810;2022-10-30T20:54:51;16.30;99.90
24232;DHT22;12364;47.810;8.810;2022-10-30T20:57:18;16.20;99.90
24232;DHT22;12364;47.810;8.810;2022-10-30T20:59:45;16.20;99.90
24232;DHT22;12364;47.810;8.810;2022-10-30T21:02:12;16.20;99.90
24232;DHT22;12364;47.810;8.810;2022-10-30T21:04:39;16.10;99.90
24232;DHT22;12364;47.810;8.810;2022-10-30T21:07:06;16.10;99.90
24232;DHT22;12364;47.810;8.810;2022-10-30T21:09:33;16.00;99.90
24232;DHT22;12364;47.810;8.810;2022-10-30T21:12:00;15.90;99.90
24232;DHT22;12364;47.810;8.810;2022-10-30T21:14:28;15.90;99.90
24232;DHT22;12364;47.810;8.810;2022-10-30T21:16:55;15.80;99.90
24232;DHT22;12364;47.810;8.810;2022-10-30T21:19:22;15.80;99.90
24232;DHT22;12364;47.810;8.810;2022-10-30T21:21:49;15.80;99.90
24232;DHT22;12364;47.810;8.810;2022-10-30T21:24:16;15.80;99.90
24232;DHT22;12364;47.810;8.810;2022-10-30T21:26:43;15.80;99.90
24232;DHT22;12364;47.810;8.810;2022-10-30T21:29:10;15.60;99.90
24232;DHT22;12364;47.810;8.810;2022-10-30T21:31:37;15.60;99.90
24232;DHT22;12364;47.810;8.810;2022-10-30T21:34:04;15.50;99.90
24232;DHT22;12364;47.810;8.810;2022-10-30T21:36:31;15.50;99.90
24232;DHT22;12364;47.810;8.810;2022-10-30T21:38:58;15.40;99.90
24232;DHT22;12364;47.810;8.810;2022-10-30T21:41:25;15.40;99.90
24232;DHT22;12364;47.810;8.810;2022-10-30T21:43:53;15.40;99.90
24232;DHT22;12364;47.810;8.810;2022-10-30T21:46:21;15.40;99.90
24232;DHT22;12364;47.810;8.810;2022-10-30T21:48:48;15.50;99.90
24232;DHT22;12364;47.810;8.810;2022-10-30T21:51:17;15.50;99.90
24232;DHT22;12364;47.810;8.810;2022-10-30T21:53:44;15.50;99.90
24232;DHT22;12364;47.810;8.810;2022-10-30T21:56:13;15.50;99.90
24232;DHT22;12364;47.810;8.810;2022-10-30T21:58:40;15.50;99.90
24232;DHT22;12364;47.810;8.810;2022-10-30T22:01:14;15.50;99.90
24232;DHT22;12364;47.810;8.810;2022-10-30T22:03:42;15.50;99.90
24232;DHT22;12364;47.810;8.810;2022-10-30T22:06:10;15.40;99.90
24232;DHT22;12364;47.810;8.810;2022-10-30T22:08:38;15.40;99.90
24232;DHT22;12364;47.810;8.810;2022-10-30T22:11:06;15.40;99.90
24232;DHT22;12364;47.810;8.810;2022-10-30T22:13:33;15.30;99.90
24232;DHT22;12364;47.810;8.810;2022-10-30T22:16:01;15.20;99.90
24232;DHT22;12364;47.810;8.810;2022-10-30T22:18:28;15.10;99.90
24232;DHT22;12364;47.810;8.810;2022-10-30T22:20:59;15.10;99.90
24232;DHT22;12364;47.810;8.810;2022-10-30T22:23:27;15.10;99.90
24232;DHT22;12364;47.810;8.810;2022-10-30T22:25:55;15.00;99.90
24232;DHT22;12364;47.810;8.810;2022-10-30T22:28:22;15.00;99.90
24232;DHT22;12364;47.810;8.810;2022-10-30T22:30:49;15.00;99.90
24232;DHT22;12364;47.810;8.810;2022-10-30T22:33:17;15.00;99.90
24232;DHT22;12364;47.810;8.810;2022-10-30T22:35:44;15.00;99.90
24232;DHT22;12364;47.810;8.810;2022-10-30T22:38:11;14.90;99.90
24232;DHT22;12364;47.810;8.810;2022-10-30T22:40:38;15.00;99.90
24232;DHT22;12364;47.810;8.810;2022-10-30T22:43:05;15.00;99.90
24232;DHT22;12364;47.810;8.810;2022-10-30T22:45:33;15.00;99.90
24232;DHT22;12364;47.810;8.810;2022-10-30T22:47:59;15.00;99.90
24232;DHT22;12364;47.810;8.810;2022-10-30T22:50:27;15.00;99.90
24232;DHT22;12364;47.810;8.810;2022-10-30T22:52:56;15.00;99.90
24232;DHT22;12364;47.810;8.810;2022-10-30T22:55:23;14.90;99.90
24232;DHT22;12364;47.810;8.810;2022-10-30T22:57:52;14.80;99.90
24232;DHT22;12364;47.810;8.810;2022-10-30T23:00:23;14.80;99.90
24232;DHT22;12364;47.810;8.810;2022-10-30T23:02:50;14.80;99.90
24232;DHT22;12364;47.810;8.810;2022-10-30T23:05:17;14.70;99.90
24232;DHT22;12364;47.810;8.810;2022-10-30T23:07:44;14.70;99.90
24232;DHT22;12364;47.810;8.810;2022-10-30T23:10:11;14.60;99.90
24232;DHT22;12364;47.810;8.810;2022-10-30T23:12:38;14.60;99.90